createdAt,value
2019-05-02T00:01:01.891Z,11.39
2019-05-02T00:03:31.493Z,11.09
2019-05-02T00:06:02.994Z,11.02
2019-05-02T00:08:33.227Z,11.14
2019-05-02T00:11:01.239Z,11.21
2019-05-02T00:13:29.715Z,11.16
2019-05-02T00:15:59.141Z,11.20
2019-05-02T00:18:32.041Z,11.25
2019-05-02T00:21:01.411Z,11.25
2019-05-02T00:23:29.214Z,10.88
2019-05-02T00:25:57.850Z,10.97
2019-05-02T00:28:26.399Z,10.86
2019-05-02T00:30:55.248Z,10.83
2019-05-02T00:33:24.030Z,10.87
2019-05-02T00:35:52.458Z,10.79
2019-05-02T00:38:20.922Z,10.87
2019-05-02T00:40:49.682Z,10.79
2019-05-02T00:43:18.155Z,10.77
2019-05-02T00:45:46.851Z,10.78
2019-05-02T00:48:23.211Z,10.84
2019-05-02T00:50:50.660Z,10.85
2019-05-02T00:53:19.712Z,10.83
2019-05-02T00:55:48.199Z,10.87
2019-05-02T00:58:16.943Z,10.77
2019-05-02T01:00:53.318Z,10.76
2019-05-02T01:03:23.476Z,10.85
2019-05-02T01:05:51.915Z,10.71
2019-05-02T01:08:20.325Z,10.77
2019-05-02T01:10:52.179Z,10.86
2019-05-02T01:13:19.319Z,10.88
2019-05-02T01:15:48.706Z,10.94
2019-05-02T01:18:17.238Z,10.94
2019-05-02T01:20:45.782Z,10.98
2019-05-02T01:23:14.571Z,10.95
2019-05-02T01:25:47.251Z,10.85
2019-05-02T01:28:17.666Z,10.95
2019-05-02T01:30:50.043Z,10.98
2019-05-02T01:33:36.840Z,11.01
2019-05-02T01:36:06.520Z,11.04
2019-05-02T01:38:48.783Z,11.03
2019-05-02T01:41:17.212Z,10.83
2019-05-02T01:43:45.649Z,10.87
2019-05-02T01:46:17.103Z,10.83
2019-05-02T01:48:45.623Z,10.87
2019-05-02T01:51:14.570Z,10.94
2019-05-02T01:53:43.014Z,10.99
2019-05-02T01:56:11.854Z,10.99
2019-05-02T01:58:40.225Z,10.98
2019-05-02T02:01:08.688Z,10.96
2019-05-02T02:03:40.530Z,10.91
2019-05-02T02:06:07.922Z,10.94
2019-05-02T02:08:38.781Z,10.84
2019-05-02T02:11:07.221Z,10.54
2019-05-02T02:13:36.542Z,10.54
2019-05-02T02:16:06.131Z,10.38
2019-05-02T02:18:36.195Z,10.36
2019-05-02T02:21:14.766Z,10.27
2019-05-02T02:24:00.817Z,10.39
2019-05-02T02:26:29.679Z,10.36
2019-05-02T02:28:58.044Z,10.47
2019-05-02T02:31:26.442Z,10.13
2019-05-02T02:33:54.850Z,10.23
2019-05-02T02:36:31.243Z,10.17
2019-05-02T02:38:53.418Z,10.32
2019-05-02T02:41:21.887Z,10.33
2019-05-02T02:43:54.777Z,10.38
2019-05-02T02:46:38.069Z,10.20
2019-05-02T02:49:03.413Z,10.24
2019-05-02T02:51:31.853Z,10.09
2019-05-02T02:54:03.782Z,9.98
2019-05-02T02:56:34.592Z,10.06
2019-05-02T02:59:00.655Z,10.15
2019-05-02T03:01:31.144Z,10.15
2019-05-02T03:04:01.962Z,10.15
2019-05-02T03:06:29.403Z,9.88
2019-05-02T03:08:57.846Z,10.06
2019-05-02T03:11:28.011Z,10.00
2019-05-02T03:14:10.151Z,9.69
2019-05-02T03:16:46.789Z,9.59
2019-05-02T03:19:14.737Z,9.65
2019-05-02T03:21:42.370Z,9.82
2019-05-02T03:24:10.805Z,9.67
2019-05-02T03:26:39.279Z,9.79
2019-05-02T03:29:07.713Z,9.68
2019-05-02T03:31:37.071Z,9.77
2019-05-02T03:34:05.582Z,9.86
2019-05-02T03:36:36.013Z,9.62
2019-05-02T03:39:14.433Z,9.67
2019-05-02T03:41:36.969Z,9.45
2019-05-02T03:44:11.306Z,9.57
2019-05-02T03:46:35.570Z,9.73
2019-05-02T03:49:07.293Z,9.59
2019-05-02T03:51:34.167Z,9.68
2019-05-02T03:54:07.493Z,9.75
2019-05-02T03:56:33.124Z,9.61
2019-05-02T03:59:01.995Z,9.73
2019-05-02T04:01:34.742Z,9.65
2019-05-02T04:04:00.711Z,9.77
2019-05-02T04:06:29.062Z,9.38
2019-05-02T04:09:00.058Z,9.26
2019-05-02T04:11:37.961Z,9.54
2019-05-02T04:13:58.306Z,9.70
2019-05-02T04:16:27.905Z,9.69
2019-05-02T04:18:58.176Z,9.56
2019-05-02T04:21:26.885Z,9.69
2019-05-02T04:24:06.685Z,9.59
2019-05-02T04:26:26.073Z,9.60
2019-05-02T04:28:54.531Z,9.70
2019-05-02T04:31:24.983Z,9.69
2019-05-02T04:33:53.369Z,9.83
2019-05-02T04:36:21.861Z,9.82
2019-05-02T04:38:52.543Z,9.85
2019-05-02T04:41:28.674Z,9.83
2019-05-02T04:43:57.618Z,9.92
2019-05-02T04:46:27.303Z,9.62
2019-05-02T04:48:52.898Z,9.48
2019-05-02T04:51:21.190Z,9.56
2019-05-02T04:53:50.113Z,9.43
2019-05-02T04:56:18.922Z,9.64
2019-05-02T04:58:49.353Z,9.76
2019-05-02T05:01:17.782Z,9.85
2019-05-02T05:03:51.241Z,9.79
2019-05-02T05:06:18.884Z,9.80
2019-05-02T05:08:48.279Z,9.69
2019-05-02T05:11:20.801Z,9.77
2019-05-02T05:13:47.925Z,9.89
2019-05-02T05:16:18.503Z,9.88
2019-05-02T05:18:49.425Z,9.94
2019-05-02T05:21:17.833Z,9.72
2019-05-02T05:24:01.341Z,9.76
2019-05-02T05:26:33.928Z,9.67
2019-05-02T05:28:59.944Z,9.74
2019-05-02T05:31:29.113Z,9.52
2019-05-02T05:33:58.047Z,9.68
2019-05-02T05:36:32.620Z,9.68
2019-05-02T05:38:58.221Z,9.17
2019-05-02T05:41:27.778Z,9.57
2019-05-02T05:43:57.325Z,9.67
2019-05-02T05:46:28.077Z,9.67
2019-05-02T05:48:58.237Z,9.44
2019-05-02T05:51:27.648Z,9.45
2019-05-02T05:54:01.784Z,9.67
2019-05-02T05:56:27.943Z,9.44
2019-05-02T05:58:58.963Z,9.37
2019-05-02T06:01:34.333Z,9.37
2019-05-02T06:03:58.073Z,9.59
2019-05-02T06:06:27.400Z,9.60
2019-05-02T06:08:56.141Z,9.30
2019-05-02T06:11:24.643Z,9.16
2019-05-02T06:13:53.121Z,9.11
2019-05-02T06:16:21.558Z,9.29
2019-05-02T06:18:50.667Z,9.57
2019-05-02T06:21:19.205Z,9.55
2019-05-02T06:23:47.710Z,9.38
2019-05-02T06:26:16.136Z,9.30
2019-05-02T06:28:44.747Z,9.68
2019-05-02T06:31:13.170Z,9.74
2019-05-02T06:33:41.717Z,9.53
2019-05-02T06:36:10.158Z,9.53
2019-05-02T06:38:38.909Z,9.67
2019-05-02T06:41:07.443Z,9.64
2019-05-02T06:43:35.893Z,9.69
2019-05-02T06:46:15.570Z,9.68
2019-05-02T06:48:35.022Z,9.67
2019-05-02T06:51:03.771Z,9.83
2019-05-02T06:53:34.989Z,9.70
2019-05-02T06:56:02.425Z,9.64
2019-05-02T06:58:30.839Z,9.57
2019-05-02T07:00:59.403Z,9.51
2019-05-02T07:03:28.234Z,9.42
2019-05-02T07:05:58.711Z,9.53
2019-05-02T07:08:26.878Z,9.47
2019-05-02T07:10:55.965Z,9.31
2019-05-02T07:13:25.611Z,9.47
2019-05-02T07:16:01.739Z,9.61
2019-05-02T07:18:34.800Z,9.76
2019-05-02T07:21:04.553Z,9.69
2019-05-02T07:23:32.941Z,9.62
2019-05-02T07:26:01.446Z,9.50
2019-05-02T07:28:29.899Z,9.56
2019-05-02T07:30:58.443Z,9.55
2019-05-02T07:33:26.879Z,9.58
2019-05-02T07:36:00.167Z,9.56
2019-05-02T07:38:27.586Z,9.52
2019-05-02T07:40:56.443Z,9.80
2019-05-02T07:43:25.233Z,9.86
2019-05-02T07:45:54.184Z,9.71
2019-05-02T07:48:22.990Z,9.71
2019-05-02T07:50:52.392Z,9.74
2019-05-02T07:53:21.762Z,9.94
2019-05-02T07:55:50.588Z,9.95
2019-05-02T07:58:19.369Z,10.11
2019-05-02T08:00:48.182Z,9.78
2019-05-02T08:03:16.929Z,9.85
2019-05-02T08:05:45.684Z,9.91
2019-05-02T08:08:14.140Z,9.83
2019-05-02T08:10:42.680Z,9.83
2019-05-02T08:13:12.008Z,9.91
2019-05-02T08:15:45.755Z,10.02
2019-05-02T08:18:11.334Z,10.08
2019-05-02T08:20:39.820Z,10.21
2019-05-02T08:23:08.311Z,10.19
2019-05-02T08:25:36.871Z,10.07
2019-05-02T08:28:10.210Z,10.04
2019-05-02T08:30:41.767Z,9.95
2019-05-02T08:33:10.353Z,9.87
2019-05-02T08:35:38.842Z,10.08
2019-05-02T08:38:07.529Z,10.00
2019-05-02T08:40:35.919Z,10.11
2019-05-02T08:43:09.359Z,10.19
2019-05-02T08:45:38.254Z,10.14
2019-05-02T08:48:06.435Z,10.22
2019-05-02T08:50:35.480Z,10.27
2019-05-02T08:53:04.298Z,10.30
2019-05-02T08:55:32.766Z,10.52
2019-05-02T08:58:01.291Z,10.55
2019-05-02T09:00:32.229Z,10.47
2019-05-02T09:03:02.521Z,10.40
2019-05-02T09:05:30.057Z,10.46
2019-05-02T09:07:58.854Z,10.57
2019-05-02T09:10:27.311Z,10.55
2019-05-02T09:12:55.760Z,10.79
2019-05-02T09:15:24.143Z,10.85
2019-05-02T09:17:56.287Z,11.02
2019-05-02T09:20:23.722Z,10.95
2019-05-02T09:22:55.928Z,10.82
2019-05-02T09:25:22.961Z,10.88
2019-05-02T09:27:52.617Z,10.85
2019-05-02T09:30:24.203Z,10.93
2019-05-02T09:32:52.156Z,11.08
2019-05-02T09:35:23.027Z,10.98
2019-05-02T09:37:52.275Z,10.92
2019-05-02T09:40:22.182Z,10.93
2019-05-02T09:42:53.312Z,11.03
2019-05-02T09:45:27.505Z,11.26
2019-05-02T09:48:01.541Z,11.26
2019-05-02T09:50:29.477Z,11.15
2019-05-02T09:52:53.941Z,11.32
2019-05-02T09:55:22.848Z,11.17
2019-05-02T09:57:52.986Z,11.21
2019-05-02T10:00:41.803Z,11.10
2019-05-02T10:03:12.111Z,11.03
2019-05-02T10:05:42.888Z,11.16
2019-05-02T10:08:13.738Z,11.20
2019-05-02T10:10:44.174Z,11.39
2019-05-02T10:13:12.173Z,11.67
2019-05-02T10:15:42.132Z,11.66
2019-05-02T10:18:14.130Z,11.45
2019-05-02T10:20:41.913Z,11.49
2019-05-02T10:23:11.980Z,11.17
2019-05-02T10:25:46.116Z,11.27
2019-05-02T10:28:12.906Z,11.11
2019-05-02T10:30:42.624Z,11.28
2019-05-02T10:33:12.146Z,11.10
2019-05-02T10:35:45.363Z,11.14
2019-05-02T10:38:18.207Z,11.06
2019-05-02T10:40:48.305Z,11.07
2019-05-02T10:43:14.392Z,11.15
2019-05-02T10:45:47.396Z,11.24
2019-05-02T10:48:24.814Z,11.16
2019-05-02T10:50:47.782Z,11.39
2019-05-02T10:53:16.171Z,11.43
2019-05-02T10:55:44.986Z,11.65
2019-05-02T10:58:13.405Z,11.68
2019-05-02T11:00:45.263Z,11.62
2019-05-02T11:03:13.742Z,11.93
2019-05-02T11:05:43.779Z,11.44
2019-05-02T11:08:12.188Z,11.28
2019-05-02T11:10:42.293Z,11.30
2019-05-02T11:13:12.559Z,11.41
2019-05-02T11:15:59.272Z,11.35
2019-05-02T11:18:40.238Z,11.54
2019-05-02T11:21:06.798Z,11.68
2019-05-02T11:23:29.945Z,11.91
2019-05-02T11:25:58.364Z,11.98
2019-05-02T11:28:26.831Z,11.66
2019-05-02T11:30:57.012Z,11.74
2019-05-02T11:33:26.330Z,11.59
2019-05-02T11:35:54.804Z,11.77
2019-05-02T11:38:47.856Z,11.83
2019-05-02T11:40:53.823Z,11.56
2019-05-02T11:43:22.426Z,11.45
2019-05-02T11:45:55.869Z,11.60
2019-05-02T11:48:22.599Z,11.75
2019-05-02T11:50:52.352Z,11.50
2019-05-02T11:53:28.948Z,11.78
2019-05-02T11:55:53.233Z,11.75
2019-05-02T11:58:22.964Z,11.72
2019-05-02T12:00:52.317Z,11.96
2019-05-02T12:03:28.124Z,12.10
2019-05-02T12:05:55.317Z,12.17
2019-05-02T12:08:24.544Z,12.02
2019-05-02T12:10:52.939Z,11.93
2019-05-02T12:13:22.661Z,11.94
2019-05-02T12:15:52.002Z,11.81
2019-05-02T12:18:23.165Z,11.78
2019-05-02T12:20:52.010Z,11.86
2019-05-02T12:23:22.658Z,11.91
2019-05-02T12:25:51.967Z,12.03
2019-05-02T12:28:22.772Z,11.95
2019-05-02T12:30:51.939Z,12.02
2019-05-02T12:33:22.393Z,12.00
2019-05-02T12:35:52.496Z,12.02
2019-05-02T12:38:22.904Z,12.04
2019-05-02T12:40:52.074Z,12.36
2019-05-02T12:43:22.731Z,12.39
2019-05-02T12:45:52.807Z,12.29
2019-05-02T12:48:22.089Z,12.51
2019-05-02T12:50:52.610Z,12.47
2019-05-02T12:53:21.916Z,12.27
2019-05-02T12:55:52.538Z,12.23
2019-05-02T12:58:21.844Z,12.33
2019-05-02T13:00:52.849Z,12.28
2019-05-02T13:03:37.926Z,12.18
2019-05-02T13:06:06.441Z,12.27
2019-05-02T13:08:36.500Z,12.22
2019-05-02T13:11:16.030Z,12.17
2019-05-02T13:13:44.664Z,12.01
2019-05-02T13:16:13.234Z,12.08
2019-05-02T13:18:42.402Z,12.30
2019-05-02T13:21:16.878Z,12.34
2019-05-02T13:23:44.505Z,12.54
2019-05-02T13:26:19.550Z,12.75
2019-05-02T13:28:44.184Z,12.53
2019-05-02T13:31:32.045Z,12.42
2019-05-02T13:34:13.277Z,12.56
2019-05-02T13:36:39.577Z,12.44
2019-05-02T13:39:12.384Z,12.52
2019-05-02T13:41:42.806Z,12.55
2019-05-02T13:44:13.141Z,12.50
2019-05-02T13:46:41.983Z,12.50
2019-05-02T13:49:12.671Z,12.51
2019-05-02T13:51:42.599Z,12.40
2019-05-02T13:54:12.540Z,12.62
2019-05-02T13:56:48.814Z,12.80
2019-05-02T13:59:17.778Z,12.76
2019-05-02T14:01:46.865Z,12.63
2019-05-02T14:04:15.351Z,12.75
2019-05-02T14:06:43.790Z,12.91
2019-05-02T14:09:19.867Z,13.00
2019-05-02T14:11:55.891Z,13.06
2019-05-02T14:14:24.419Z,12.69
2019-05-02T14:16:53.100Z,12.96
2019-05-02T14:19:22.189Z,13.08
2019-05-02T14:21:51.862Z,12.78
2019-05-02T14:24:23.038Z,12.83
2019-05-02T14:26:52.536Z,12.85
2019-05-02T14:29:21.723Z,12.77
2019-05-02T14:31:51.958Z,12.65
2019-05-02T14:34:25.269Z,12.74
2019-05-02T14:36:58.884Z,12.76
2019-05-02T14:39:23.803Z,12.84
2019-05-02T14:41:52.639Z,12.93
2019-05-02T14:44:23.324Z,13.29
2019-05-02T14:46:52.316Z,13.66
2019-05-02T14:49:23.904Z,14.27
2019-05-02T14:51:52.507Z,14.06
2019-05-02T14:54:22.928Z,14.23
2019-05-02T14:56:53.321Z,13.80
2019-05-02T14:59:22.853Z,13.81
2019-05-02T15:01:58.005Z,13.90
2019-05-02T15:04:23.251Z,14.04
2019-05-02T15:06:52.522Z,13.63
2019-05-02T15:09:26.368Z,13.42
2019-05-02T15:12:03.069Z,13.54
2019-05-02T15:14:33.052Z,13.43
2019-05-02T15:17:02.570Z,13.31
2019-05-02T15:19:32.958Z,13.13
2019-05-02T15:22:02.262Z,13.19
2019-05-02T15:24:33.391Z,13.15
2019-05-02T15:27:05.548Z,13.17
2019-05-02T15:29:32.284Z,13.21
2019-05-02T15:32:08.583Z,13.43
2019-05-02T15:34:53.940Z,13.71
2019-05-02T15:37:25.631Z,13.66
2019-05-02T15:42:24.813Z,13.69
2019-05-02T15:44:56.981Z,13.69
2019-05-02T15:47:23.524Z,13.60
2019-05-02T15:49:52.823Z,13.42
2019-05-02T15:52:24.126Z,13.35
2019-05-02T15:54:59.550Z,13.38
2019-05-02T15:57:24.952Z,13.42
2019-05-02T15:59:53.639Z,13.33
2019-05-02T16:02:26.481Z,13.14
2019-05-02T16:04:56.991Z,13.17
2019-05-02T16:07:24.328Z,13.08
2019-05-02T16:09:57.262Z,13.07
2019-05-02T16:12:27.121Z,13.05
2019-05-02T16:14:53.318Z,13.02
2019-05-02T16:17:25.610Z,12.99
2019-05-02T16:19:58.855Z,12.97
2019-05-02T16:22:25.724Z,12.93
2019-05-02T16:24:56.528Z,12.90
2019-05-02T16:27:42.067Z,12.89
2019-05-02T16:30:13.367Z,12.98
2019-05-02T16:32:44.266Z,12.97
2019-05-02T16:35:17.341Z,12.99
2019-05-02T16:37:46.754Z,13.00
2019-05-02T16:40:16.016Z,13.01
2019-05-02T16:42:44.837Z,13.01
2019-05-02T16:45:13.675Z,13.02
2019-05-02T16:47:42.400Z,13.03
2019-05-02T16:50:12.203Z,13.03
2019-05-02T16:52:43.707Z,13.08
2019-05-02T16:55:20.073Z,13.03
2019-05-02T16:57:43.257Z,13.03
2019-05-02T17:00:15.142Z,13.03
2019-05-02T17:02:46.378Z,13.06
2019-05-02T17:05:15.068Z,13.08
2019-05-02T17:07:45.480Z,13.08
2019-05-02T17:10:32.196Z,13.09
2019-05-02T17:13:02.739Z,13.11
2019-05-02T17:15:35.793Z,13.12
2019-05-02T17:18:12.686Z,13.07
2019-05-02T17:20:35.605Z,13.08
2019-05-02T17:23:07.369Z,13.05
2019-05-02T17:25:34.355Z,13.02
2019-05-02T17:28:08.540Z,13.03
2019-05-02T17:30:38.669Z,12.96
2019-05-02T17:33:07.349Z,12.80
2019-05-02T17:35:33.348Z,12.77
2019-05-02T17:38:02.561Z,12.66
2019-05-02T17:40:31.278Z,12.54
2019-05-02T17:43:02.750Z,12.50
2019-05-02T17:45:33.380Z,12.56
2019-05-02T17:48:00.151Z,12.61
2019-05-02T17:50:42.349Z,12.61
2019-05-02T17:53:11.674Z,12.61
2019-05-02T17:55:42.684Z,12.40
2019-05-02T17:58:16.371Z,12.31
2019-05-02T18:00:43.108Z,12.27
2019-05-02T18:03:12.458Z,12.28
2019-05-02T18:05:42.019Z,12.26
2019-05-02T18:08:14.484Z,12.25
2019-05-02T18:10:41.882Z,12.24
2019-05-02T18:13:12.190Z,12.24
2019-05-02T18:15:41.723Z,12.28
2019-05-02T18:18:10.675Z,12.22
2019-05-02T18:20:42.709Z,12.25
2019-05-02T18:23:09.246Z,12.34
2019-05-02T18:25:37.675Z,12.29
2019-05-02T18:28:06.163Z,12.35
2019-05-02T18:30:34.634Z,12.31
2019-05-02T18:33:07.072Z,12.31
2019-05-02T18:35:37.352Z,12.33
2019-05-02T18:38:04.690Z,12.34
2019-05-02T18:40:33.210Z,12.35
2019-05-02T18:43:05.139Z,12.35
2019-05-02T18:45:32.129Z,12.38
2019-05-02T18:48:05.183Z,12.41
2019-05-02T18:50:36.730Z,12.37
2019-05-02T18:53:03.562Z,12.45
2019-05-02T18:55:32.124Z,12.50
2019-05-02T18:58:02.268Z,12.49
2019-05-02T19:00:37.829Z,12.52
2019-05-02T19:03:02.773Z,12.49
2019-05-02T19:05:32.530Z,12.46
2019-05-02T19:08:02.436Z,12.48
2019-05-02T19:10:32.356Z,12.50
2019-05-02T19:13:04.474Z,12.52
2019-05-02T19:15:34.373Z,12.52
2019-05-02T19:18:02.610Z,12.52
2019-05-02T19:20:37.450Z,12.52
2019-05-02T19:23:05.918Z,12.51
2019-05-02T19:25:34.455Z,12.54
2019-05-02T19:28:07.711Z,12.49
2019-05-02T19:30:42.278Z,12.49
2019-05-02T19:33:12.119Z,12.50
2019-05-02T19:35:43.169Z,12.51
2019-05-02T19:38:11.839Z,12.51
2019-05-02T19:40:42.603Z,12.53
2019-05-02T19:43:14.130Z,12.53
2019-05-02T19:45:40.747Z,12.50
2019-05-02T19:48:09.189Z,12.51
2019-05-02T19:50:43.675Z,12.50
2019-05-02T19:53:18.012Z,12.52
2019-05-02T19:55:42.722Z,12.47
2019-05-02T19:58:10.892Z,12.44
2019-05-02T20:00:42.354Z,12.46
2019-05-02T20:03:13.610Z,12.48
2019-05-02T20:05:42.785Z,12.46
2019-05-02T20:08:14.804Z,12.52
2019-05-02T20:10:42.364Z,12.54
2019-05-02T20:13:11.993Z,12.55
2019-05-02T20:15:47.938Z,12.56
2019-05-02T20:18:16.776Z,12.53
2019-05-02T20:21:12.078Z,12.56
2019-05-02T20:23:37.710Z,12.67
2019-05-02T20:26:09.468Z,12.69
2019-05-02T20:28:36.834Z,12.70
2019-05-02T20:31:05.381Z,12.75
2019-05-02T20:33:33.883Z,12.91
2019-05-02T20:36:02.502Z,12.83
2019-05-02T20:38:32.467Z,12.64
2019-05-02T20:41:02.943Z,12.61
2019-05-02T20:43:32.278Z,12.42
2019-05-02T20:46:02.582Z,12.37
2019-05-02T20:48:32.193Z,12.27
2019-05-02T20:51:02.760Z,12.27
2019-05-02T20:53:34.049Z,12.18
2019-05-02T20:56:01.983Z,11.96
2019-05-02T20:58:32.506Z,11.97
2019-05-02T21:01:06.206Z,11.91
2019-05-02T21:03:31.994Z,11.84
2019-05-02T21:06:08.145Z,11.86
2019-05-02T21:08:49.018Z,11.79
2019-05-02T21:11:20.020Z,11.78
2019-05-02T21:13:49.611Z,11.75
2019-05-02T21:16:21.725Z,11.73
2019-05-02T21:18:50.027Z,11.61
2019-05-02T21:21:21.831Z,11.67
2019-05-02T21:23:52.797Z,11.53
2019-05-02T21:26:22.065Z,11.57
2019-05-02T21:28:52.204Z,11.63
2019-05-02T21:31:22.523Z,11.67
2019-05-02T21:33:53.027Z,11.64
2019-05-02T21:36:22.690Z,11.61
2019-05-02T21:38:52.127Z,11.63
2019-05-02T21:41:22.207Z,11.54
2019-05-02T21:43:53.873Z,11.62
2019-05-02T21:46:22.906Z,11.62
2019-05-02T21:48:52.682Z,11.60
2019-05-02T21:51:23.409Z,11.50
2019-05-02T21:53:58.372Z,11.44
2019-05-02T21:56:32.427Z,11.45
2019-05-02T21:59:13.304Z,11.53
2019-05-02T22:01:48.207Z,11.51
2019-05-02T22:04:17.362Z,11.34
2019-05-02T22:06:46.010Z,11.38
2019-05-02T22:09:14.836Z,11.30
2019-05-02T22:11:43.390Z,11.32
2019-05-02T22:14:13.236Z,11.30
2019-05-02T22:16:42.383Z,11.29
2019-05-02T22:19:10.896Z,11.33
2019-05-02T22:21:39.828Z,11.27
2019-05-02T22:24:11.673Z,11.24
2019-05-02T22:26:38.658Z,11.28
2019-05-02T22:29:07.319Z,11.23
2019-05-02T22:31:35.785Z,11.20
2019-05-02T22:34:04.512Z,11.25
2019-05-02T22:36:33.034Z,11.23
2019-05-02T22:39:18.970Z,11.04
2019-05-02T22:41:47.474Z,11.12
2019-05-02T22:44:15.866Z,11.13
2019-05-02T22:46:44.856Z,11.17
2019-05-02T22:49:15.257Z,11.15
2019-05-02T22:51:43.983Z,11.18
2019-05-02T22:54:26.337Z,11.19
2019-05-02T22:56:43.135Z,11.04
2019-05-02T22:59:11.598Z,11.07
2019-05-02T23:01:42.157Z,11.05
2019-05-02T23:04:12.709Z,10.89
2019-05-02T23:06:43.950Z,10.90
2019-05-02T23:09:12.733Z,10.99
2019-05-02T23:11:42.513Z,11.00
2019-05-02T23:14:11.373Z,11.08
2019-05-02T23:16:42.307Z,11.03
2019-05-02T23:19:12.263Z,11.00
2019-05-02T23:21:42.425Z,11.05
2019-05-02T23:24:14.564Z,10.97
2019-05-02T23:26:51.718Z,11.01
2019-05-02T23:29:19.972Z,10.90
2019-05-02T23:31:48.396Z,10.94
2019-05-02T23:34:16.929Z,10.88
2019-05-02T23:36:45.402Z,10.90
2019-05-02T23:39:13.880Z,10.84
2019-05-02T23:41:42.646Z,10.85
2019-05-02T23:44:12.311Z,10.79
2019-05-02T23:46:42.349Z,10.77
2019-05-02T23:49:12.768Z,10.77
2019-05-02T23:51:42.777Z,10.80
2019-05-02T23:54:12.927Z,10.72
2019-05-02T23:56:42.977Z,10.69
2019-05-02T23:59:11.947Z,10.75
